Time;durP1;ratioP1;P1;durP2;ratioP2;P2;SDS_P1;SDS_P2;PMS_P1;PMS_P2;Temp;Humidity;BMP_temperature;BMP_pressure;BME280_temperature;BME280_humidity;BME280_pressure;Samples;Min_cycle;Max_cycle;Signal;HPM_P1;HPM_P2
2022/03/07 00:02:10;;;;;;;7.47;1.15;;;;;;;;;;5013294;28;20456;-65
2022/03/07 00:04:40;;;;;;;4.93;0.90;;;;;;;;;;5038692;28;20065;-66
2022/03/07 00:07:13;;;;;;;3.58;1.00;;;;;;;;;;5037095;28;20061;-65
2022/03/07 00:09:45;;;;;;;3.92;0.98;;;;;;;;;;5030866;28;20060;-66
2022/03/07 00:12:15;;;;;;;7.28;1.08;;;;;;;;;;4996611;28;20050;-65
2022/03/07 00:14:45;;;;;;;3.58;0.93;;;;;;;;;;5035663;28;20545;-65
2022/03/07 00:17:16;;;;;;;5.85;1.35;;;;;;;;;;5014425;28;20064;-66
2022/03/07 00:19:47;;;;;;;6.38;1.50;;;;;;;;;;5035181;28;20056;-65
2022/03/07 00:22:21;;;;;;;5.32;1.60;;;;;;;;;;5029538;28;20041;-64
2022/03/07 00:24:51;;;;;;;7.00;1.10;;;;;;;;;;5029147;28;20664;-66
2022/03/07 00:27:21;;;;;;;4.15;1.00;;;;;;;;;;5046672;28;20060;-64
2022/03/07 00:29:52;;;;;;;10.73;1.52;;;;;;;;;;4997334;28;20057;-65
2022/03/07 00:32:26;;;;;;;3.70;1.30;;;;;;;;;;5035973;28;20412;-65
2022/03/07 00:34:59;;;;;;;1.98;0.80;;;;;;;;;;5044606;28;20057;-65
2022/03/07 00:37:30;;;;;;;3.47;1.08;;;;;;;;;;5027860;28;20067;-65
2022/03/07 00:40:04;;;;;;;2.92;1.30;;;;;;;;;;5028657;28;20041;-65
2022/03/07 00:42:38;;;;;;;2.95;1.13;;;;;;;;;;4957144;28;20057;-65
2022/03/07 00:45:12;;;;;;;5.25;1.10;;;;;;;;;;4989894;28;20065;-65
2022/03/07 00:47:42;;;;;;;3.90;0.93;;;;;;;;;;4989177;28;20063;-65
2022/03/07 00:50:12;;;;;;;6.88;1.48;;;;;;;;;;4989707;28;20058;-65
2022/03/07 00:52:44;;;;;;;3.25;1.23;;;;;;;;;;4966299;28;20051;-65
2022/03/07 00:55:16;;;;;;;4.95;1.00;;;;;;;;;;4950245;28;20054;-65
2022/03/07 00:57:47;;;;;;;6.55;1.10;;;;;;;;;;4939307;28;20059;-65
2022/03/07 01:00:25;;;;;;;4.30;1.10;;;;;;;;;;4932511;29;20051;-65
2022/03/07 01:02:56;;;;;;;4.88;1.30;;;;;;;;;;4930946;29;20081;-65
2022/03/07 01:08:26;;;;;;;2.53;1.17;;;;;;;;;;4865537;29;20060;-65
2022/03/07 01:10:58;;;;;;;3.72;1.00;;;;;;;;;;4893570;29;20075;-65
2022/03/07 01:13:29;;;;;;;3.65;0.95;;;;;;;;;;4893523;29;20477;-65
2022/03/07 01:16:01;;;;;;;3.65;0.90;;;;;;;;;;4924924;29;20059;-65
2022/03/07 01:18:33;;;;;;;10.73;1.35;;;;;;;;;;4931824;28;20069;-65
2022/03/07 01:21:07;;;;;;;6.15;1.10;;;;;;;;;;4943662;28;20559;-65
2022/03/07 01:23:37;;;;;;;6.72;1.55;;;;;;;;;;4949751;29;20074;-65
2022/03/07 01:26:12;;;;;;;10.85;1.90;;;;;;;;;;4950246;29;20082;-65
2022/03/07 01:28:45;;;;;;;4.35;1.30;;;;;;;;;;4930927;29;20542;-65
2022/03/07 01:31:17;;;;;;;3.22;1.05;;;;;;;;;;4938608;29;20059;-65
2022/03/07 01:33:47;;;;;;;6.78;1.25;;;;;;;;;;4946340;29;20051;-65
2022/03/07 01:36:19;;;;;;;9.20;1.42;;;;;;;;;;4936672;29;20058;-65
2022/03/07 01:38:53;;;;;;;6.68;1.20;;;;;;;;;;4930705;29;20063;-65
2022/03/07 01:41:26;;;;;;;2.95;1.17;;;;;;;;;;4929646;29;20129;-65
2022/03/07 01:43:57;;;;;;;19.15;1.70;;;;;;;;;;4895711;29;20071;-66
2022/03/07 01:46:31;;;;;;;;;;;;;;;;;;4847164;29;20052;-66
2022/03/07 01:49:05;;;;;;;6.18;1.20;;;;;;;;;;4892870;29;19935;-65
2022/03/07 01:51:40;;;;;;;9.95;1.38;;;;;;;;;;4892506;29;20101;-65
2022/03/07 01:54:15;;;;;;;1.92;1.00;;;;;;;;;;4910786;29;20052;-65
2022/03/07 01:56:54;;;;;;;;;;;;;;;;;;4911676;29;20059;-65
2022/03/07 01:59:27;;;;;;;12.95;1.67;;;;;;;;;;4882928;29;19923;-65
2022/03/07 02:02:00;;;;;;;9.80;1.30;;;;;;;;;;4868330;29;20057;-65
2022/03/07 02:04:38;;;;;;;5.25;1.40;;;;;;;;;;4892353;29;20053;-65
2022/03/07 02:07:14;;;;;;;7.97;1.45;;;;;;;;;;4813900;29;20049;-66
2022/03/07 02:09:46;;;;;;;6.72;1.67;;;;;;;;;;4869938;29;20057;-65
2022/03/07 02:12:17;;;;;;;3.97;1.85;;;;;;;;;;4857845;29;20056;-65
2022/03/07 02:14:48;;;;;;;8.50;1.75;;;;;;;;;;4870001;29;20064;-65
2022/03/07 02:17:20;;;;;;;2.08;1.13;;;;;;;;;;4857615;29;20065;-65
2022/03/07 02:19:52;;;;;;;6.03;1.58;;;;;;;;;;4855779;29;20407;-65
2022/03/07 02:22:24;;;;;;;4.43;1.30;;;;;;;;;;4833970;29;20066;-65
2022/03/07 02:24:54;;;;;;;5.72;1.63;;;;;;;;;;4833312;29;20077;-65
2022/03/07 02:27:26;;;;;;;4.05;1.40;;;;;;;;;;4837062;29;20081;-65
2022/03/07 02:29:59;;;;;;;3.92;1.75;;;;;;;;;;4858527;29;20561;-65
2022/03/07 02:32:30;;;;;;;8.80;2.10;;;;;;;;;;4859527;29;20062;-65
2022/03/07 02:35:03;;;;;;;7.90;1.63;;;;;;;;;;4845534;29;20108;-65
2022/03/07 02:37:38;;;;;;;4.28;1.45;;;;;;;;;;4839701;29;20065;-65
2022/03/07 02:40:12;;;;;;;5.05;1.38;;;;;;;;;;4843348;29;20554;-66
2022/03/07 02:43:05;;;;;;;3.03;1.13;;;;;;;;;;4894380;29;20071;-65
2022/03/07 02:45:36;;;;;;;5.53;1.10;;;;;;;;;;4913786;29;20440;-66
2022/03/07 02:48:08;;;;;;;4.55;1.77;;;;;;;;;;4918019;29;20051;-66
2022/03/07 02:50:39;;;;;;;6.05;2.05;;;;;;;;;;4934004;29;20059;-66
2022/03/07 02:53:14;;;;;;;10.10;2.65;;;;;;;;;;4899234;29;20048;-66
2022/03/07 02:55:48;;;;;;;4.75;1.20;;;;;;;;;;4930465;29;20063;-66
2022/03/07 02:58:18;;;;;;;4.30;1.35;;;;;;;;;;4933968;29;20669;-65
2022/03/07 03:00:50;;;;;;;6.50;1.38;;;;;;;;;;4952152;29;20047;-66
2022/03/07 03:03:21;;;;;;;3.85;1.30;;;;;;;;;;4952502;29;20055;-66
2022/03/07 03:05:54;;;;;;;6.38;1.52;;;;;;;;;;4952559;29;20067;-66
2022/03/07 03:08:29;;;;;;;5.13;1.52;;;;;;;;;;4965469;28;20065;-65
2022/03/07 03:11:01;;;;;;;6.90;1.38;;;;;;;;;;4996711;28;20064;-65
2022/03/07 03:13:31;;;;;;;8.77;1.83;;;;;;;;;;5047336;28;20428;-66
2022/03/07 03:16:01;;;;;;;8.07;1.50;;;;;;;;;;5067501;28;20053;-65
2022/03/07 03:18:32;;;;;;;5.35;1.40;;;;;;;;;;5066884;28;20056;-65
2022/03/07 03:21:03;;;;;;;3.13;1.40;;;;;;;;;;5050713;28;20056;-65
2022/03/07 03:23:33;;;;;;;8.30;1.33;;;;;;;;;;5053165;28;20048;-65
2022/03/07 03:26:04;;;;;;;8.57;1.48;;;;;;;;;;5070120;28;20060;-65
2022/03/07 03:28:34;;;;;;;4.32;1.52;;;;;;;;;;5054312;28;20044;-65
2022/03/07 03:31:06;;;;;;;3.00;1.30;;;;;;;;;;5070356;28;20052;-65
2022/03/07 03:33:42;;;;;;;6.60;1.70;;;;;;;;;;5019905;28;20059;-65
2022/03/07 03:36:12;;;;;;;3.22;1.10;;;;;;;;;;4986677;28;20050;-65
2022/03/07 03:38:42;;;;;;;5.10;1.60;;;;;;;;;;5021928;28;20057;-65
2022/03/07 03:41:15;;;;;;;10.23;1.60;;;;;;;;;;5030417;28;20061;-65
2022/03/07 03:43:45;;;;;;;3.00;1.17;;;;;;;;;;5029831;28;20048;-65
2022/03/07 03:46:20;;;;;;;3.90;1.25;;;;;;;;;;4992704;28;20059;-65
2022/03/07 03:48:50;;;;;;;3.50;1.63;;;;;;;;;;5010138;28;20050;-65
2022/03/07 03:51:21;;;;;;;5.28;1.60;;;;;;;;;;5010329;28;20066;-65
2022/03/07 03:53:55;;;;;;;13.10;1.90;;;;;;;;;;5010806;28;20065;-64
2022/03/07 03:56:27;;;;;;;4.55;1.50;;;;;;;;;;4979532;28;20062;-64
2022/03/07 03:58:59;;;;;;;4.00;1.33;;;;;;;;;;5009462;28;20054;-65
2022/03/07 04:01:29;;;;;;;5.85;1.40;;;;;;;;;;5010199;28;20061;-65
2022/03/07 04:04:02;;;;;;;3.05;1.48;;;;;;;;;;5010211;28;20046;-65
2022/03/07 04:06:34;;;;;;;3.22;1.30;;;;;;;;;;5008490;28;20061;-65
2022/03/07 04:09:18;;;;;;;10.63;1.70;;;;;;;;;;4990472;28;20430;-65
2022/03/07 04:11:54;;;;;;;4.50;1.38;;;;;;;;;;4990681;28;20067;-65
2022/03/07 04:14:32;;;;;;;6.68;1.52;;;;;;;;;;4986365;28;20062;-65
2022/03/07 04:17:03;;;;;;;5.43;1.42;;;;;;;;;;5027756;28;20053;-65
2022/03/07 04:19:38;;;;;;;8.20;1.50;;;;;;;;;;5029217;28;20492;-65
2022/03/07 04:22:08;;;;;;;6.95;1.52;;;;;;;;;;5029401;28;20064;-65
2022/03/07 04:24:43;;;;;;;6.13;1.60;;;;;;;;;;5029621;28;20058;-65
2022/03/07 04:27:14;;;;;;;7.50;1.52;;;;;;;;;;5051123;28;20048;-65
2022/03/07 04:29:45;;;;;;;7.82;1.90;;;;;;;;;;5068926;28;20590;-65
2022/03/07 04:32:16;;;;;;;7.35;1.42;;;;;;;;;;5069370;28;20051;-65
2022/03/07 04:34:49;;;;;;;7.63;1.60;;;;;;;;;;5052251;28;20060;-65
2022/03/07 04:37:19;;;;;;;4.45;1.40;;;;;;;;;;5031036;28;20631;-65
2022/03/07 04:39:51;;;;;;;7.43;1.77;;;;;;;;;;5049024;28;20651;-65
2022/03/07 04:42:21;;;;;;;9.35;1.75;;;;;;;;;;5049340;28;20049;-65
2022/03/07 04:44:54;;;;;;;8.63;1.30;;;;;;;;;;5011032;28;20041;-65
2022/03/07 04:47:25;;;;;;;7.35;1.73;;;;;;;;;;5058185;28;20427;-65
2022/03/07 04:49:57;;;;;;;6.88;1.60;;;;;;;;;;5084416;28;20052;-65
2022/03/07 04:52:27;;;;;;;11.88;1.70;;;;;;;;;;5084723;28;20198;-65
2022/03/07 04:54:58;;;;;;;8.07;1.27;;;;;;;;;;5084599;28;20055;-65
2022/03/07 04:57:29;;;;;;;3.58;1.27;;;;;;;;;;5087305;28;20064;-65
2022/03/07 05:00:10;;;;;;;5.85;1.80;;;;;;;;;;5068648;28;20559;-65
2022/03/07 05:02:42;;;;;;;4.32;2.08;;;;;;;;;;5068692;28;20060;-65
2022/03/07 05:05:18;;;;;;;9.68;1.80;;;;;;;;;;5035079;28;20432;-66
2022/03/07 05:07:51;;;;;;;8.95;1.40;;;;;;;;;;5049159;28;20048;-66
2022/03/07 05:10:22;;;;;;;9.70;1.70;;;;;;;;;;5083578;28;20060;-65
2022/03/07 05:12:58;;;;;;;6.18;1.85;;;;;;;;;;5063764;28;20082;-66
2022/03/07 05:15:33;;;;;;;3.60;1.65;;;;;;;;;;5063805;28;20053;-66
2022/03/07 05:18:04;;;;;;;12.55;2.22;;;;;;;;;;5032038;28;20061;-66
2022/03/07 05:20:37;;;;;;;4.30;1.90;;;;;;;;;;5048442;28;20845;-66
2022/03/07 05:23:25;;;;;;;5.82;1.70;;;;;;;;;;5048317;28;20059;-66
2022/03/07 05:25:57;;;;;;;8.55;2.20;;;;;;;;;;5031929;28;20061;-66
2022/03/07 05:28:34;;;;;;;5.57;1.77;;;;;;;;;;5031548;28;20049;-66
2022/03/07 05:31:04;;;;;;;5.88;1.80;;;;;;;;;;5067781;28;20056;-66
2022/03/07 05:33:34;;;;;;;7.38;1.73;;;;;;;;;;5065930;28;20064;-66
2022/03/07 05:36:08;;;;;;;8.57;1.60;;;;;;;;;;5067266;28;20048;-66
2022/03/07 05:38:40;;;;;;;5.72;1.50;;;;;;;;;;5067531;28;20061;-66
2022/03/07 05:41:17;;;;;;;4.63;1.90;;;;;;;;;;5048860;28;20135;-66
2022/03/07 05:43:47;;;;;;;6.50;1.40;;;;;;;;;;5047545;28;20513;-66
2022/03/07 05:46:20;;;;;;;9.23;1.70;;;;;;;;;;5031272;28;20048;-66
2022/03/07 05:48:52;;;;;;;5.22;1.77;;;;;;;;;;5027770;28;20073;-66
2022/03/07 05:51:25;;;;;;;5.68;1.67;;;;;;;;;;5043805;28;20057;-66
2022/03/07 05:53:55;;;;;;;9.07;1.70;;;;;;;;;;5047692;28;20056;-66
2022/03/07 05:56:28;;;;;;;7.38;1.80;;;;;;;;;;5048054;28;20660;-66
2022/03/07 05:58:59;;;;;;;5.82;1.98;;;;;;;;;;5047431;28;20056;-66
2022/03/07 06:01:29;;;;;;;7.60;2.00;;;;;;;;;;5060548;28;20056;-67
2022/03/07 06:03:59;;;;;;;9.88;1.50;;;;;;;;;;5065635;28;20155;-66
2022/03/07 06:06:32;;;;;;;4.97;1.45;;;;;;;;;;5067563;28;20513;-66
2022/03/07 06:09:04;;;;;;;4.88;1.45;;;;;;;;;;5067316;28;20508;-66
2022/03/07 06:11:36;;;;;;;6.63;1.70;;;;;;;;;;5055764;28;20056;-66
2022/03/07 06:14:06;;;;;;;5.35;2.03;;;;;;;;;;5047512;28;20057;-66
2022/03/07 06:16:40;;;;;;;5.72;1.75;;;;;;;;;;5047469;28;20063;-65
2022/03/07 06:19:12;;;;;;;4.95;2.22;;;;;;;;;;4987411;28;20054;-66
2022/03/07 06:21:44;;;;;;;5.47;2.00;;;;;;;;;;4948699;28;20061;-65
2022/03/07 06:24:15;;;;;;;7.22;2.20;;;;;;;;;;4975089;28;20542;-66
2022/03/07 06:26:45;;;;;;;8.18;1.90;;;;;;;;;;5019421;28;20067;-65
2022/03/07 06:29:15;;;;;;;5.70;1.80;;;;;;;;;;4952516;28;20061;-66
2022/03/07 06:31:49;;;;;;;5.07;1.85;;;;;;;;;;4961642;28;20436;-66
2022/03/07 06:34:20;;;;;;;8.48;2.03;;;;;;;;;;4929041;29;20059;-66
2022/03/07 06:36:51;;;;;;;6.57;1.92;;;;;;;;;;4929722;29;20071;-66
2022/03/07 06:39:25;;;;;;;5.40;1.58;;;;;;;;;;4898452;29;20390;-66
2022/03/07 06:42:02;;;;;;;6.30;1.80;;;;;;;;;;4934919;29;20052;-66
2022/03/07 06:44:33;;;;;;;6.72;1.92;;;;;;;;;;4901835;29;20679;-66
2022/03/07 06:47:05;;;;;;;5.82;1.70;;;;;;;;;;4917687;29;20558;-66
2022/03/07 06:49:35;;;;;;;5.90;1.90;;;;;;;;;;4948699;29;20055;-66
2022/03/07 06:52:06;;;;;;;3.72;1.85;;;;;;;;;;4948950;29;20071;-66
2022/03/07 06:54:39;;;;;;;3.35;2.15;;;;;;;;;;4902703;29;20062;-66
2022/03/07 06:57:12;;;;;;;6.38;1.70;;;;;;;;;;4937657;28;20054;-66
2022/03/07 06:59:41;;;;;;;5.82;1.92;;;;;;;;;;4968242;28;20059;-66
2022/03/07 07:02:15;;;;;;;5.93;1.90;;;;;;;;;;4969718;28;20051;-66
2022/03/07 07:04:47;;;;;;;6.70;1.83;;;;;;;;;;4987154;28;20089;-66
2022/03/07 07:07:23;;;;;;;5.88;2.00;;;;;;;;;;5029774;28;20076;-66
2022/03/07 07:09:53;;;;;;;5.05;1.90;;;;;;;;;;5013825;28;20072;-66
2022/03/07 07:12:23;;;;;;;4.00;2.20;;;;;;;;;;5058165;28;20091;-66
2022/03/07 07:14:56;;;;;;;5.13;1.80;;;;;;;;;;5059532;28;20059;-66
2022/03/07 07:17:28;;;;;;;5.70;2.20;;;;;;;;;;5070775;28;20052;-66
2022/03/07 07:19:58;;;;;;;5.32;2.20;;;;;;;;;;5020451;28;20641;-66
2022/03/07 07:22:28;;;;;;;6.65;1.98;;;;;;;;;;5070800;28;20056;-66
2022/03/07 07:25:02;;;;;;;7.55;2.10;;;;;;;;;;5069249;28;20588;-66
2022/03/07 07:27:36;;;;;;;;;;;;;;;;;;5070693;28;20083;-66
2022/03/07 07:30:09;;;;;;;5.43;2.17;;;;;;;;;;5070186;28;19921;-66
2022/03/07 07:32:40;;;;;;;4.88;2.00;;;;;;;;;;5066175;28;20421;-66
2022/03/07 07:35:11;;;;;;;12.55;2.22;;;;;;;;;;5049706;28;20579;-66
2022/03/07 07:37:43;;;;;;;4.72;2.35;;;;;;;;;;5049610;28;20096;-66
2022/03/07 07:40:17;;;;;;;4.40;1.88;;;;;;;;;;4990465;28;20061;-66
2022/03/07 07:42:47;;;;;;;5.50;1.98;;;;;;;;;;4991264;28;20058;-66
2022/03/07 07:45:20;;;;;;;9.55;2.25;;;;;;;;;;4990591;28;20058;-66
2022/03/07 07:47:54;;;;;;;4.72;2.00;;;;;;;;;;4974869;28;20175;-66
2022/03/07 07:50:27;;;;;;;8.32;2.60;;;;;;;;;;4974836;28;20065;-66
2022/03/07 07:52:57;;;;;;;6.30;1.98;;;;;;;;;;4977057;28;20062;-66
2022/03/07 07:55:29;;;;;;;5.78;1.98;;;;;;;;;;5036867;28;20056;-66
2022/03/07 07:58:02;;;;;;;5.75;1.98;;;;;;;;;;5049905;28;20497;-66
2022/03/07 08:00:33;;;;;;;3.85;2.05;;;;;;;;;;5049828;28;20049;-66
2022/03/07 08:03:03;;;;;;;5.95;2.30;;;;;;;;;;5048650;28;20413;-66
2022/03/07 08:05:35;;;;;;;5.22;1.95;;;;;;;;;;5029714;28;20064;-66
2022/03/07 08:08:07;;;;;;;5.60;2.40;;;;;;;;;;5015099;28;20459;-66
2022/03/07 08:10:41;;;;;;;7.95;2.33;;;;;;;;;;5049033;28;20413;-66
2022/03/07 08:13:11;;;;;;;8.32;2.38;;;;;;;;;;5016399;28;20068;-66
2022/03/07 08:15:42;;;;;;;8.85;2.50;;;;;;;;;;5049630;28;20509;-66
2022/03/07 08:18:16;;;;;;;8.20;2.10;;;;;;;;;;5041057;28;20060;-66
2022/03/07 08:20:52;;;;;;;7.75;1.80;;;;;;;;;;5040373;28;20051;-66
2022/03/07 08:23:22;;;;;;;8.73;2.03;;;;;;;;;;5048798;28;20084;-66
2022/03/07 08:25:54;;;;;;;6.93;2.58;;;;;;;;;;4998293;28;20061;-66
2022/03/07 08:28:26;;;;;;;5.03;2.25;;;;;;;;;;5049443;28;20065;-66
2022/03/07 08:30:57;;;;;;;6.32;2.50;;;;;;;;;;5049126;28;20045;-66
2022/03/07 08:33:31;;;;;;;4.05;2.10;;;;;;;;;;5048713;28;20460;-66
2022/03/07 08:36:04;;;;;;;4.55;1.70;;;;;;;;;;5008806;28;20050;-66
2022/03/07 08:38:35;;;;;;;4.95;2.28;;;;;;;;;;5023145;28;20118;-66
2022/03/07 08:41:06;;;;;;;5.22;1.90;;;;;;;;;;5028646;28;20069;-66
2022/03/07 08:43:36;;;;;;;5.15;1.90;;;;;;;;;;4989905;28;20057;-66
2022/03/07 08:46:12;;;;;;;6.28;1.92;;;;;;;;;;4989583;28;20102;-66
2022/03/07 08:48:44;;;;;;;3.13;1.85;;;;;;;;;;4989152;28;20059;-66
2022/03/07 08:51:15;;;;;;;3.67;1.90;;;;;;;;;;4989431;28;20542;-66
2022/03/07 08:53:45;;;;;;;7.60;2.00;;;;;;;;;;4973463;28;20458;-66
2022/03/07 08:56:18;;;;;;;;;;;;;;;;;;4989895;28;20474;-66
2022/03/07 08:58:56;;;;;;;5.90;1.90;;;;;;;;;;5008757;28;19922;-66
2022/03/07 09:01:26;;;;;;;3.50;1.80;;;;;;;;;;5035608;28;20061;-66
2022/03/07 09:03:57;;;;;;;5.90;2.70;;;;;;;;;;5048431;28;20190;-66
2022/03/07 09:06:30;;;;;;;5.03;2.05;;;;;;;;;;5048525;28;20061;-65
2022/03/07 09:09:01;;;;;;;5.15;2.10;;;;;;;;;;5039375;28;20057;-66
2022/03/07 09:11:53;;;;;;;6.90;2.47;;;;;;;;;;5015544;28;20183;-66
2022/03/07 09:14:23;;;;;;;6.07;2.35;;;;;;;;;;5045100;28;20493;-66
2022/03/07 09:17:00;;;;;;;7.63;2.38;;;;;;;;;;5015603;28;20057;-66
2022/03/07 09:19:32;;;;;;;6.18;2.47;;;;;;;;;;5048301;28;20088;-66
2022/03/07 09:22:05;;;;;;;12.82;3.00;;;;;;;;;;5048365;28;20063;-65
2022/03/07 09:24:35;;;;;;;6.75;2.75;;;;;;;;;;5031106;28;20501;-66
2022/03/07 09:27:11;;;;;;;5.68;2.75;;;;;;;;;;5015650;28;20057;-66
2022/03/07 09:29:44;;;;;;;;;;;;;;;;;;5048566;28;20448;-65
2022/03/07 09:32:14;;;;;;;5.80;2.72;;;;;;;;;;5047836;28;19921;-65
2022/03/07 09:34:45;;;;;;;7.32;2.72;;;;;;;;;;5047524;28;20061;-65
2022/03/07 09:37:16;;;;;;;4.45;2.28;;;;;;;;;;5046833;28;20507;-65
2022/03/07 09:39:47;;;;;;;8.85;2.83;;;;;;;;;;5037590;28;20067;-65
2022/03/07 09:42:18;;;;;;;6.32;2.42;;;;;;;;;;5090873;28;20052;-65
2022/03/07 09:44:49;;;;;;;8.20;2.88;;;;;;;;;;5038184;28;20675;-65
2022/03/07 09:47:25;;;;;;;7.43;2.70;;;;;;;;;;5055756;28;20523;-65
2022/03/07 09:49:55;;;;;;;7.78;2.70;;;;;;;;;;5014348;28;20061;-65
2022/03/07 09:52:25;;;;;;;11.75;2.63;;;;;;;;;;5028077;28;20061;-65
2022/03/07 09:54:58;;;;;;;5.80;2.53;;;;;;;;;;5029054;28;20065;-65
2022/03/07 09:57:32;;;;;;;7.18;2.58;;;;;;;;;;5031039;28;20064;-65
2022/03/07 10:00:05;;;;;;;7.30;2.33;;;;;;;;;;4951818;28;20072;-65
2022/03/07 10:02:37;;;;;;;4.93;2.50;;;;;;;;;;5030933;28;20053;-65
2022/03/07 10:05:08;;;;;;;7.35;2.35;;;;;;;;;;5047184;28;20681;-65
2022/03/07 10:07:46;;;;;;;11.05;2.55;;;;;;;;;;5047748;28;20068;-65
2022/03/07 10:10:22;;;;;;;9.93;2.50;;;;;;;;;;5015332;28;20053;-65
2022/03/07 10:12:52;;;;;;;4.72;2.65;;;;;;;;;;4967812;28;20068;-65
2022/03/07 10:15:23;;;;;;;11.02;2.92;;;;;;;;;;5046897;28;20060;-65
2022/03/07 10:18:00;;;;;;;8.75;2.85;;;;;;;;;;5047080;28;20057;-65
2022/03/07 10:20:31;;;;;;;7.40;2.30;;;;;;;;;;5037480;28;20052;-65
2022/03/07 10:23:02;;;;;;;9.15;2.72;;;;;;;;;;5067356;28;20595;-65
2022/03/07 10:25:37;;;;;;;8.35;2.40;;;;;;;;;;5066479;28;20059;-65
2022/03/07 10:28:09;;;;;;;9.05;2.47;;;;;;;;;;5067658;28;20052;-65
2022/03/07 10:30:41;;;;;;;12.02;2.55;;;;;;;;;;5067164;28;20489;-65
2022/03/07 10:33:14;;;;;;;9.00;2.55;;;;;;;;;;5033557;28;20056;-65
2022/03/07 10:35:48;;;;;;;10.02;2.67;;;;;;;;;;5059333;28;20045;-65
2022/03/07 10:38:22;;;;;;;9.45;2.50;;;;;;;;;;5004072;28;20053;-65
2022/03/07 10:40:53;;;;;;;;;;;;;;;;;;5007814;28;20065;-65
2022/03/07 10:43:27;;;;;;;6.25;2.30;;;;;;;;;;5007592;28;20645;-65
2022/03/07 10:46:02;;;;;;;7.38;2.53;;;;;;;;;;4999055;28;20058;-66
2022/03/07 10:48:44;;;;;;;3.67;2.17;;;;;;;;;;4978048;28;20553;-65
2022/03/07 10:51:22;;;;;;;6.53;2.17;;;;;;;;;;5011233;28;20062;-65
2022/03/07 10:54:06;;;;;;;6.60;2.90;;;;;;;;;;5010923;28;20049;-65
2022/03/07 10:56:53;;;;;;;12.82;2.90;;;;;;;;;;4982719;28;20066;-65
2022/03/07 10:59:34;;;;;;;6.90;3.13;;;;;;;;;;4992002;28;20514;-65
2022/03/07 11:02:10;;;;;;;6.07;2.70;;;;;;;;;;4991569;28;20426;-65
2022/03/07 11:04:43;;;;;;;4.93;2.33;;;;;;;;;;4959548;28;20081;-65
2022/03/07 11:07:13;;;;;;;9.80;3.15;;;;;;;;;;4971388;28;20680;-65
2022/03/07 11:09:52;;;;;;;7.78;2.50;;;;;;;;;;5010619;28;20062;-66
2022/03/07 11:12:27;;;;;;;7.18;2.83;;;;;;;;;;4962188;28;20061;-65
2022/03/07 11:14:58;;;;;;;6.47;2.28;;;;;;;;;;4979702;28;20073;-65
2022/03/07 11:17:32;;;;;;;8.82;2.40;;;;;;;;;;5031193;28;20049;-66
2022/03/07 11:20:06;;;;;;;13.15;3.60;;;;;;;;;;5014783;28;20061;-66
2022/03/07 11:22:38;;;;;;;10.27;3.10;;;;;;;;;;5030337;28;20049;-66
2022/03/07 11:25:15;;;;;;;9.93;3.00;;;;;;;;;;4998735;28;20840;-65
2022/03/07 11:27:46;;;;;;;6.20;3.00;;;;;;;;;;5009832;28;20061;-65
2022/03/07 11:30:19;;;;;;;9.38;2.40;;;;;;;;;;5010167;28;20057;-66
2022/03/07 11:32:50;;;;;;;;;;;;;;;;;;4978543;28;20081;-66
2022/03/07 11:35:32;;;;;;;7.47;2.95;;;;;;;;;;4947574;28;20409;-66
2022/03/07 11:38:22;;;;;;;6.95;2.55;;;;;;;;;;5029975;28;20057;-66
2022/03/07 11:40:57;;;;;;;11.55;3.70;;;;;;;;;;5030226;28;20063;-66
2022/03/07 11:43:36;;;;;;;6.18;2.50;;;;;;;;;;5030583;28;20049;-66
2022/03/07 11:46:10;;;;;;;7.10;3.40;;;;;;;;;;5050765;28;20096;-66
2022/03/07 11:48:46;;;;;;;7.07;3.00;;;;;;;;;;5069990;28;20052;-66
2022/03/07 11:51:22;;;;;;;8.18;2.72;;;;;;;;;;5036379;28;20492;-66
2022/03/07 11:53:54;;;;;;;12.63;3.65;;;;;;;;;;5070152;28;20436;-66
2022/03/07 11:56:37;;;;;;;12.07;3.33;;;;;;;;;;5052225;28;20079;-66
2022/03/07 11:59:11;;;;;;;10.60;3.00;;;;;;;;;;5037589;28;20511;-66
2022/03/07 12:01:55;;;;;;;12.38;3.78;;;;;;;;;;5014088;28;20049;-66
2022/03/07 12:04:42;;;;;;;7.93;3.17;;;;;;;;;;5031667;28;20060;-66
2022/03/07 12:07:26;;;;;;;8.98;3.00;;;;;;;;;;5025085;28;20056;-66
2022/03/07 12:10:07;;;;;;;6.65;3.00;;;;;;;;;;5049610;28;20056;-63
2022/03/07 12:12:39;;;;;;;7.60;2.75;;;;;;;;;;5009782;28;20094;-66
2022/03/07 12:15:46;;;;;;;8.40;2.15;;;;;;;;;;5009463;28;20058;-66
2022/03/07 12:18:18;;;;;;;3.47;1.50;;;;;;;;;;5009615;28;20550;-66
2022/03/07 12:20:53;;;;;;;2.60;1.23;;;;;;;;;;5009801;28;20061;-66
2022/03/07 12:23:27;;;;;;;3.38;0.80;;;;;;;;;;4993772;28;20062;-63
2022/03/07 12:26:02;;;;;;;6.25;0.90;;;;;;;;;;5010026;28;20058;-68
2022/03/07 12:28:40;;;;;;;1.98;0.60;;;;;;;;;;5009598;28;20058;-66
2022/03/07 12:31:12;;;;;;;1.90;0.60;;;;;;;;;;4970225;28;20063;-66
2022/03/07 12:33:47;;;;;;;4.13;1.02;;;;;;;;;;4953934;28;20062;-67
2022/03/07 12:36:36;;;;;;;2.97;0.90;;;;;;;;;;4970117;28;20066;-68
2022/03/07 12:39:08;;;;;;;1.27;0.80;;;;;;;;;;4969890;28;20054;-66
2022/03/07 12:41:38;;;;;;;3.67;0.88;;;;;;;;;;5009430;28;20058;-64
2022/03/07 12:44:13;;;;;;;1.17;0.65;;;;;;;;;;5008964;28;20525;-64
2022/03/07 12:46:44;;;;;;;2.38;0.70;;;;;;;;;;5009180;28;20045;-63
2022/03/07 12:49:18;;;;;;;4.07;0.80;;;;;;;;;;5015979;28;20062;-64
2022/03/07 12:51:48;;;;;;;7.45;0.60;;;;;;;;;;5067978;28;20610;-63
2022/03/07 12:54:33;;;;;;;2.88;0.77;;;;;;;;;;5051944;28;20056;-64
2022/03/07 12:57:06;;;;;;;2.63;0.73;;;;;;;;;;5051281;28;20171;-63
2022/03/07 12:59:38;;;;;;;3.58;0.60;;;;;;;;;;5048605;28;20075;-65
2022/03/07 13:02:07;;;;;;;2.45;1.23;;;;;;;;;;5048790;28;20436;-67
2022/03/07 13:04:39;;;;;;;2.13;0.80;;;;;;;;;;5048575;28;20060;-66
2022/03/07 13:07:15;;;;;;;2.47;0.85;;;;;;;;;;5033038;28;20413;-66
2022/03/07 13:09:46;;;;;;;2.83;0.63;;;;;;;;;;5045718;28;20059;-66
2022/03/07 13:12:16;;;;;;;2.28;0.80;;;;;;;;;;5091372;28;20115;-66
2022/03/07 13:14:49;;;;;;;2.33;0.88;;;;;;;;;;5056492;28;20055;-67
2022/03/07 13:17:21;;;;;;;1.13;0.63;;;;;;;;;;5048866;28;20504;-66
2022/03/07 13:19:52;;;;;;;3.30;0.68;;;;;;;;;;5049375;28;20500;-64
2022/03/07 13:22:23;;;;;;;3.55;0.93;;;;;;;;;;5049559;28;20493;-65
2022/03/07 13:24:58;;;;;;;1.67;0.80;;;;;;;;;;4999988;28;20500;-64
2022/03/07 13:27:30;;;;;;;2.88;0.70;;;;;;;;;;5049195;28;20052;-64
2022/03/07 13:30:08;;;;;;;1.42;0.65;;;;;;;;;;5000247;28;20067;-64
2022/03/07 13:32:43;;;;;;;1.92;0.60;;;;;;;;;;5049297;28;20168;-64
2022/03/07 13:35:29;;;;;;;2.50;0.77;;;;;;;;;;5028953;28;20107;-63
2022/03/07 13:38:01;;;;;;;3.92;0.60;;;;;;;;;;4999619;28;20053;-64
2022/03/07 13:40:36;;;;;;;;;;;;;;;;;;5029883;28;20061;-64
2022/03/07 13:43:06;;;;;;;3.35;0.52;;;;;;;;;;5029196;28;19921;-64
2022/03/07 13:45:38;;;;;;;0.93;0.40;;;;;;;;;;5029042;28;20495;-65
2022/03/07 13:48:12;;;;;;;2.45;0.70;;;;;;;;;;5028940;28;20068;-64
2022/03/07 13:50:48;;;;;;;1.98;0.90;;;;;;;;;;5029000;28;20409;-64
2022/03/07 13:53:20;;;;;;;1.70;0.65;;;;;;;;;;5013156;28;20061;-64
2022/03/07 13:55:57;;;;;;;1.60;0.68;;;;;;;;;;5046044;28;20061;-63
2022/03/07 13:58:33;;;;;;;2.78;0.68;;;;;;;;;;5048867;28;20124;-64
2022/03/07 14:01:10;;;;;;;1.10;0.70;;;;;;;;;;5048586;28;20061;-64
2022/03/07 14:04:12;;;;;;;2.72;0.60;;;;;;;;;;5048705;28;20049;-64
2022/03/07 14:06:44;;;;;;;1.17;0.65;;;;;;;;;;5048715;28;20053;-65
2022/03/07 14:09:39;;;;;;;1.77;0.68;;;;;;;;;;5035330;28;20418;-64
2022/03/07 14:12:10;;;;;;;1.65;1.00;;;;;;;;;;5057474;28;20048;-64
2022/03/07 14:14:40;;;;;;;1.75;0.70;;;;;;;;;;5091310;28;20430;-63
2022/03/07 14:17:17;;;;;;;1.73;0.80;;;;;;;;;;5091123;28;20040;-63
2022/03/07 14:19:49;;;;;;;0.77;0.52;;;;;;;;;;5055445;28;20051;-64
2022/03/07 14:22:20;;;;;;;1.80;0.60;;;;;;;;;;5073670;28;20483;-64
2022/03/07 14:24:52;;;;;;;1.40;0.65;;;;;;;;;;5091172;28;20040;-64
2022/03/07 14:27:26;;;;;;;;;;;;;;;;;;5091471;28;20399;-65
2022/03/07 14:30:01;;;;;;;1.35;0.63;;;;;;;;;;5090903;28;20303;-64
2022/03/07 14:32:33;;;;;;;2.38;0.70;;;;;;;;;;5091022;28;20043;-64
2022/03/07 14:35:07;;;;;;;0.82;0.60;;;;;;;;;;5022278;28;20404;-63
2022/03/07 14:37:41;;;;;;;8.32;1.48;;;;;;;;;;5039063;28;20059;-62
2022/03/07 14:40:17;;;;;;;2.10;0.90;;;;;;;;;;5039643;28;20056;-64
2022/03/07 14:42:52;;;;;;;1.20;0.60;;;;;;;;;;5090807;28;20048;-64
2022/03/07 14:45:24;;;;;;;1.25;0.73;;;;;;;;;;5090918;28;20040;-64
2022/03/07 14:47:56;;;;;;;1.23;0.60;;;;;;;;;;5038848;28;20052;-63
2022/03/07 14:50:28;;;;;;;3.58;0.60;;;;;;;;;;5028119;28;20056;-63
2022/03/07 14:53:08;;;;;;;3.15;0.75;;;;;;;;;;4988332;28;20062;-63
2022/03/07 14:55:40;;;;;;;1.80;0.65;;;;;;;;;;4989300;28;20059;-64
2022/03/07 14:58:29;;;;;;;1.60;0.70;;;;;;;;;;4973009;28;20061;-64
2022/03/07 15:01:03;;;;;;;6.00;0.90;;;;;;;;;;4956605;28;20050;-63
2022/03/07 15:03:40;;;;;;;0.80;0.50;;;;;;;;;;4957116;28;20046;-64
2022/03/07 15:06:11;;;;;;;3.22;0.75;;;;;;;;;;4988830;28;20069;-65
2022/03/07 15:08:41;;;;;;;4.45;0.60;;;;;;;;;;4988805;28;20062;-65
2022/03/07 15:11:20;;;;;;;1.15;0.60;;;;;;;;;;4969270;28;20054;-65
2022/03/07 15:13:52;;;;;;;9.57;0.85;;;;;;;;;;4969601;28;20058;-65
2022/03/07 15:16:26;;;;;;;0.65;0.60;;;;;;;;;;4969444;28;20529;-65
2022/03/07 15:18:56;;;;;;;2.10;0.82;;;;;;;;;;4969316;28;20467;-64
2022/03/07 15:21:30;;;;;;;1.05;0.60;;;;;;;;;;4969366;28;20069;-65
2022/03/07 22:56:10;;;;;;;6.43;1.20;;;;;;;;;;5055308;28;20041;-65
2022/03/07 22:58:43;;;;;;;9.30;1.25;;;;;;;;;;5035808;28;20084;-65